Time;durP1;ratioP1;P1;durP2;ratioP2;P2;SDS_P1;SDS_P2;PMS_P1;PMS_P2;Temp;Humidity;BMP_temperature;BMP_pressure;BME280_temperature;BME280_humidity;BME280_pressure;Samples;Min_cycle;Max_cycle;Signal;HPM_P1;HPM_P2
2023/05/04 00:01:04;;;;;;;15.00;7.00;;;;;;;15.67;76.94;98540.25;4456290;32;20109;-80
2023/05/04 00:03:31;;;;;;;16.42;7.80;;;;;;;15.33;78.80;98542.06;4455949;32;20084;-81
2023/05/04 00:05:58;;;;;;;15.52;7.35;;;;;;;15.43;78.35;98542.41;4456220;32;20081;-80
2023/05/04 00:08:25;;;;;;;15.27;7.82;;;;;;;16.20;74.42;98542.41;4456210;32;20088;-80
2023/05/04 00:10:54;;;;;;;16.23;7.12;;;;;;;15.72;76.97;98539.97;4455846;32;20090;-81
2023/05/04 00:13:21;;;;;;;14.93;7.47;;;;;;;15.90;75.70;98542.41;4456367;32;20371;-80
2023/05/04 00:15:48;;;;;;;15.80;7.37;;;;;;;15.29;79.43;98540.53;4456182;32;20104;-81
2023/05/04 00:18:15;;;;;;;14.65;7.55;;;;;;;15.91;76.34;98536.25;4455804;32;20523;-81
2023/05/04 00:20:42;;;;;;;16.05;7.28;;;;;;;15.28;79.08;98538.88;4456311;32;20097;-81
2023/05/04 00:23:09;;;;;;;15.35;7.12;;;;;;;16.00;76.11;98534.06;4456190;32;20104;-81
2023/05/04 00:25:36;;;;;;;17.27;7.62;;;;;;;16.36;73.83;98531.09;4455884;32;20097;-81
2023/05/04 00:28:03;;;;;;;16.27;7.50;;;;;;;16.27;74.23;98526.41;4455989;32;20352;-81
2023/05/04 00:30:29;;;;;;;16.58;8.18;;;;;;;15.88;76.04;98533.00;4455624;32;20135;-81
2023/05/04 00:32:56;;;;;;;15.13;7.57;;;;;;;16.08;75.45;98530.09;4456197;32;20436;-81
2023/05/04 00:35:24;;;;;;;18.42;7.80;;;;;;;15.99;75.62;98538.44;4456073;32;20089;-81
2023/05/04 00:37:51;;;;;;;15.55;7.50;;;;;;;16.38;73.75;98537.91;4455551;32;20505;-81
2023/05/04 00:40:18;;;;;;;18.17;8.00;;;;;;;16.67;72.00;98535.34;4456024;32;20093;-81
2023/05/04 00:42:45;;;;;;;17.10;8.07;;;;;;;15.59;76.98;98534.59;4456002;32;20085;-81
2023/05/04 00:45:13;;;;;;;13.68;7.32;;;;;;;15.94;75.44;98534.41;4455698;32;20112;-81
2023/05/04 00:47:41;;;;;;;13.85;7.62;;;;;;;15.97;74.77;98529.06;4455772;32;20116;-81
2023/05/04 00:50:08;;;;;;;15.40;7.65;;;;;;;16.48;72.47;98527.78;4442075;32;20820;-81
2023/05/04 00:52:36;;;;;;;16.10;7.20;;;;;;;16.12;74.31;98520.34;4455547;32;20152;-81
2023/05/04 00:55:03;;;;;;;16.80;7.85;;;;;;;16.01;74.00;98522.72;4455947;32;20395;-81
2023/05/04 00:57:30;;;;;;;16.87;7.68;;;;;;;16.43;72.69;98528.06;4455777;32;20119;-81
2023/05/04 00:59:57;;;;;;;16.30;7.30;;;;;;;16.52;71.92;98529.28;4455464;32;20089;-81
2023/05/04 01:02:24;;;;;;;14.27;6.65;;;;;;;17.09;69.18;98524.13;4455882;32;20127;-81
2023/05/04 01:04:51;;;;;;;15.07;7.62;;;;;;;18.04;64.63;98521.56;4455822;32;20146;-81
2023/05/04 01:07:25;;;;;;;15.50;7.32;;;;;;;18.02;64.23;98518.22;4455335;32;20115;-81
2023/05/04 01:10:25;;;;;;;13.82;7.30;;;;;;;18.40;62.04;98528.75;4441940;32;20096;-81
2023/05/04 01:13:01;;;;;;;15.20;7.45;;;;;;;18.20;62.76;98524.84;4405760;32;20100;-81
2023/05/04 01:15:29;;;;;;;15.38;7.57;;;;;;;18.27;61.62;98517.41;4439190;32;20081;-81
2023/05/04 01:17:56;;;;;;;15.48;7.65;;;;;;;17.76;63.52;98526.91;4439990;32;20110;-81
2023/05/04 01:20:23;;;;;;;16.60;7.80;;;;;;;17.24;66.31;98525.78;4439953;32;20444;-81
2023/05/04 01:22:50;;;;;;;15.93;7.45;;;;;;;17.28;66.40;98522.03;4440104;32;20153;-81
2023/05/04 01:25:17;;;;;;;13.65;7.57;;;;;;;17.23;66.50;98534.53;4438944;32;20077;-81
2023/05/04 01:27:45;;;;;;;13.70;6.75;;;;;;;16.89;68.53;98529.69;4439536;32;20140;-81
2023/05/04 01:30:31;;;;;;;16.02;7.47;;;;;;;17.13;67.02;98533.44;4439126;32;20101;-80
2023/05/04 01:33:00;;;;;;;15.45;7.30;;;;;;;16.84;66.20;98523.94;4440110;32;20100;-81
2023/05/04 01:35:27;;;;;;;15.57;7.55;;;;;;;15.84;71.30;98521.06;4439711;32;20112;-81
2023/05/04 01:37:53;;;;;;;17.40;7.65;;;;;;;15.89;71.42;98524.28;4439981;32;20132;-81
2023/05/04 01:40:20;;;;;;;22.58;7.97;;;;;;;15.66;71.87;98519.53;4439936;32;20101;-81
2023/05/04 01:42:47;;;;;;;16.60;7.90;;;;;;;15.96;71.69;98515.19;4439608;32;20428;-81
2023/05/04 01:45:14;;;;;;;16.85;8.35;;;;;;;15.55;73.21;98513.13;4439745;32;20089;-81
2023/05/04 01:47:41;;;;;;;19.20;8.77;;;;;;;15.76;71.94;98520.69;4438149;32;20159;-81
2023/05/04 01:50:08;;;;;;;16.50;8.80;;;;;;;15.99;70.58;98506.38;4439764;32;20093;-81
2023/05/04 01:52:35;;;;;;;15.73;7.80;;;;;;;15.67;72.09;98511.62;4440919;32;20433;-81
2023/05/04 01:55:02;;;;;;;15.65;8.05;;;;;;;16.01;70.58;98517.53;4441565;32;20155;-81
2023/05/04 01:57:29;;;;;;;16.80;8.27;;;;;;;16.47;67.71;98513.91;4441676;32;20519;-81
2023/05/04 01:59:56;;;;;;;16.65;7.62;;;;;;;16.44;68.40;98518.47;4441558;32;20120;-80
2023/05/04 02:02:23;;;;;;;16.25;8.38;;;;;;;16.81;66.42;98509.34;4441426;32;20207;-81
2023/05/04 02:04:50;;;;;;;15.13;7.45;;;;;;;16.50;67.66;98505.09;4441622;32;20135;-81
2023/05/04 02:07:17;;;;;;;16.40;8.07;;;;;;;16.76;66.57;98507.00;4441508;32;20093;-81
2023/05/04 02:09:44;;;;;;;17.55;8.02;;;;;;;16.83;65.95;98502.25;4441215;32;20088;-81
2023/05/04 02:12:11;;;;;;;19.90;8.43;;;;;;;16.67;65.58;98498.87;4450111;32;20085;-80
2023/05/04 02:14:38;;;;;;;14.55;7.57;;;;;;;16.90;64.73;98495.72;4457036;32;20104;-80
2023/05/04 02:17:05;;;;;;;26.45;9.80;;;;;;;16.52;66.59;98499.78;4456580;32;20084;-80
2023/05/04 02:19:32;;;;;;;17.00;8.70;;;;;;;16.03;68.82;98498.28;4457040;32;20088;-81
2023/05/04 02:21:59;;;;;;;17.12;8.15;;;;;;;16.56;66.41;98493.47;4457087;32;20138;-80
2023/05/04 02:24:26;;;;;;;19.15;8.35;;;;;;;16.92;64.71;98498.25;4456623;32;20077;-80
2023/05/04 02:26:53;;;;;;;18.30;8.52;;;;;;;16.80;65.46;98497.25;4456907;32;20097;-80
2023/05/04 02:29:20;;;;;;;22.70;8.65;;;;;;;16.64;65.96;98499.87;4456773;32;20233;-81
2023/05/04 02:31:47;;;;;;;15.63;7.97;;;;;;;16.61;66.62;98499.25;4456726;32;20089;-80
2023/05/04 02:34:14;;;;;;;15.88;8.13;;;;;;;16.63;65.47;98498.22;4456947;32;20099;-80
2023/05/04 02:36:41;;;;;;;15.73;7.95;;;;;;;16.47;66.47;98500.88;4456548;32;20141;-80
2023/05/04 02:39:08;;;;;;;15.82;8.07;;;;;;;16.55;65.69;98499.59;4456936;32;20088;-81
2023/05/04 02:41:34;;;;;;;19.80;8.40;;;;;;;16.68;66.02;98501.41;4456833;32;20761;-80
2023/05/04 02:44:01;;;;;;;15.73;8.10;;;;;;;16.98;63.72;98501.31;4456559;32;20092;-81
2023/05/04 02:46:29;;;;;;;14.25;7.53;;;;;;;16.95;64.16;98498.06;4456746;32;20097;-80
2023/05/04 02:48:56;;;;;;;14.52;7.25;;;;;;;17.16;63.41;98506.31;4456714;32;20479;-81
2023/05/04 02:51:23;;;;;;;16.62;7.57;;;;;;;16.20;66.00;98499.91;4456563;32;20432;-80
2023/05/04 02:53:50;;;;;;;15.07;7.93;;;;;;;17.09;63.40;98508.47;4456753;32;20086;-81
2023/05/04 02:56:17;;;;;;;15.43;7.57;;;;;;;16.37;65.76;98504.12;4442677;32;20741;-81
2023/05/04 02:58:44;;;;;;;16.70;7.53;;;;;;;17.26;62.05;98503.06;4456248;32;20097;-81
2023/05/04 03:01:11;;;;;;;14.95;7.65;;;;;;;16.74;64.28;98500.22;4456824;32;20085;-81
2023/05/04 03:03:38;;;;;;;17.52;7.90;;;;;;;16.67;65.04;98502.31;4455740;32;20458;-80
2023/05/04 03:06:05;;;;;;;15.98;7.60;;;;;;;17.39;61.63;98499.66;4456294;32;20159;-80
2023/05/04 03:08:32;;;;;;;14.25;7.10;;;;;;;17.47;60.87;98498.25;4456523;32;20111;-80
2023/05/04 03:10:59;;;;;;;14.93;7.30;;;;;;;17.16;61.48;98507.16;4456457;32;20089;-80
2023/05/04 03:13:26;;;;;;;14.27;7.65;;;;;;;16.64;62.88;98505.09;4456384;32;20081;-80
2023/05/04 03:15:52;;;;;;;14.45;7.07;;;;;;;17.31;60.69;98508.81;4456563;32;20497;-80
2023/05/04 03:18:19;;;;;;;17.37;7.82;;;;;;;17.08;61.21;98512.00;4456485;32;20109;-81
2023/05/04 03:20:46;;;;;;;17.65;7.87;;;;;;;16.39;63.75;98517.91;4456344;32;20089;-80
2023/05/04 03:23:13;;;;;;;14.98;7.78;;;;;;;16.65;62.67;98514.59;4456563;32;20085;-80
2023/05/04 03:25:40;;;;;;;15.10;6.87;;;;;;;16.66;62.09;98508.44;4456422;32;20112;-80
2023/05/04 03:28:07;;;;;;;16.55;7.80;;;;;;;15.90;64.37;98505.97;4456137;32;20484;-81
2023/05/04 03:30:35;;;;;;;18.15;8.00;;;;;;;15.80;65.73;98507.41;4456629;32;20790;-80
2023/05/04 03:33:02;;;;;;;16.42;7.97;;;;;;;15.98;65.05;98513.34;4456300;32;20158;-80
2023/05/04 03:35:29;;;;;;;16.90;7.80;;;;;;;16.16;64.23;98514.03;4456447;32;20113;-81
2023/05/04 03:37:55;;;;;;;18.58;8.13;;;;;;;16.03;64.24;98511.31;4456327;32;20105;-81
2023/05/04 03:40:23;;;;;;;15.40;7.75;;;;;;;16.28;63.78;98510.72;4456174;32;20089;-81
2023/05/04 03:42:52;;;;;;;15.50;7.75;;;;;;;16.55;61.50;98513.47;4456543;32;20150;-80
2023/05/04 03:45:21;;;;;;;17.77;7.32;;;;;;;16.86;60.36;98516.88;4456519;32;20097;-80
2023/05/04 03:47:47;;;;;;;15.75;7.70;;;;;;;15.16;66.80;98521.34;4456008;32;20352;-80
2023/05/04 03:50:15;;;;;;;15.45;7.82;;;;;;;15.10;67.61;98523.41;4456419;32;20085;-80
2023/05/04 03:52:41;;;;;;;16.30;7.53;;;;;;;15.82;65.03;98521.16;4442473;32;20420;-80
2023/05/04 03:55:09;;;;;;;15.25;7.62;;;;;;;16.42;62.33;98526.38;4456140;32;20090;-80
2023/05/04 03:57:36;;;;;;;16.55;8.27;;;;;;;16.10;63.29;98522.22;4456315;32;20513;-80
2023/05/04 04:00:03;;;;;;;16.27;8.45;;;;;;;16.62;61.21;98532.19;4456320;32;20451;-80
2023/05/04 04:02:31;;;;;;;14.35;7.47;;;;;;;16.33;61.83;98536.50;4456034;32;20077;-80
2023/05/04 04:04:58;;;;;;;17.37;7.93;;;;;;;16.63;60.32;98536.47;4456256;32;20109;-80
2023/05/04 04:07:25;;;;;;;16.45;8.02;;;;;;;16.57;60.40;98535.03;4456154;32;20101;-81
2023/05/04 04:09:52;;;;;;;18.33;7.97;;;;;;;16.65;60.43;98532.81;4441914;32;20162;-80
2023/05/04 04:12:19;;;;;;;14.98;7.47;;;;;;;16.62;60.50;98529.56;4456256;32;20081;-81
2023/05/04 04:14:51;;;;;;;17.98;7.85;;;;;;;16.91;59.08;98531.31;4455900;32;20097;-80
2023/05/04 04:17:18;;;;;;;14.77;7.32;;;;;;;17.07;58.51;98533.81;4456212;32;20115;-80
2023/05/04 04:19:45;;;;;;;16.48;8.05;;;;;;;16.39;60.75;98525.72;4456079;32;20108;-80
2023/05/04 04:22:11;;;;;;;15.20;7.95;;;;;;;16.49;60.84;98534.69;4455976;32;20960;-80
2023/05/04 04:24:38;;;;;;;17.45;7.53;;;;;;;16.67;60.20;98530.13;4456168;32;20125;-81
2023/05/04 04:27:05;;;;;;;18.83;8.20;;;;;;;16.94;59.17;98538.09;4456032;32;20169;-80
2023/05/04 04:29:34;;;;;;;16.02;7.80;;;;;;;17.24;57.64;98538.00;4455643;32;20108;-81
2023/05/04 04:32:02;;;;;;;15.73;7.28;;;;;;;17.48;57.21;98544.28;4456192;32;20077;-81
2023/05/04 04:34:29;;;;;;;15.50;7.72;;;;;;;17.59;56.09;98541.00;4456082;32;20156;-81
2023/05/04 04:36:56;;;;;;;15.55;7.40;;;;;;;18.20;54.20;98537.06;4455639;32;20115;-81
2023/05/04 04:39:23;;;;;;;14.87;7.30;;;;;;;18.90;52.25;98541.94;4456035;32;20104;-81
2023/05/04 04:41:50;;;;;;;14.20;7.28;;;;;;;19.60;49.88;98543.09;4456039;32;20410;-81
2023/05/04 04:44:17;;;;;;;16.02;7.68;;;;;;;19.60;49.80;98553.56;4441813;32;20109;-81
2023/05/04 04:46:45;;;;;;;14.13;6.82;;;;;;;19.93;48.67;98547.69;4455981;32;20689;-81
2023/05/04 04:49:12;;;;;;;14.40;7.28;;;;;;;20.55;46.99;98558.91;4455782;32;20099;-81
2023/05/04 04:51:42;;;;;;;13.93;6.90;;;;;;;20.41;46.89;98558.09;4455587;32;20076;-81
2023/05/04 04:54:09;;;;;;;12.75;6.57;;;;;;;20.73;46.17;98555.69;4455941;32;20116;-81
2023/05/04 04:56:39;;;;;;;13.13;6.90;;;;;;;21.00;45.00;98562.41;4455783;32;20096;-81
2023/05/04 04:59:06;;;;;;;13.38;6.85;;;;;;;20.90;44.91;98556.22;4455486;32;20089;-81
2023/05/04 05:01:33;;;;;;;14.63;6.78;;;;;;;21.16;44.30;98554.19;4455876;32;20104;-81
2023/05/04 05:04:00;;;;;;;13.52;6.75;;;;;;;21.50;44.06;98555.88;4455432;32;20168;-81
2023/05/04 05:06:26;;;;;;;13.57;6.80;;;;;;;21.98;42.80;98549.41;4455664;32;20101;-81
2023/05/04 05:08:53;;;;;;;13.15;6.07;;;;;;;22.28;41.96;98549.56;4455726;32;20081;-81
2023/05/04 05:11:21;;;;;;;13.50;6.35;;;;;;;22.79;41.27;98560.16;4441280;32;20573;-81
2023/05/04 05:13:47;;;;;;;12.40;6.22;;;;;;;23.73;39.58;98566.13;4441980;32;20499;-82
2023/05/04 05:16:14;;;;;;;13.45;7.00;;;;;;;23.54;38.96;98558.97;4455631;32;20097;-83
2023/05/04 05:18:41;;;;;;;12.65;6.00;;;;;;;23.12;40.28;98560.91;4441279;32;20097;-83
2023/05/04 05:21:09;;;;;;;11.65;6.53;;;;;;;23.30;39.87;98564.59;4455604;32;20103;-83
2023/05/04 05:23:36;;;;;;;12.25;6.55;;;;;;;23.03;40.16;98559.87;4455567;32;20097;-83
2023/05/04 05:26:03;;;;;;;10.98;5.53;;;;;;;22.81;40.85;98563.47;4454379;32;20109;-83
2023/05/04 05:28:30;;;;;;;11.40;5.85;;;;;;;23.82;38.77;98565.31;4455304;32;20213;-83
2023/05/04 05:30:57;;;;;;;10.60;5.80;;;;;;;25.18;36.92;98578.41;4455495;32;20089;-83
2023/05/04 05:33:24;;;;;;;11.35;5.15;;;;;;;25.67;35.34;98570.09;4455080;32;20120;-83
2023/05/04 05:35:51;;;;;;;11.30;5.22;;;;;;;25.79;34.48;98573.41;4455367;32;20432;-83
2023/05/04 05:38:18;;;;;;;10.88;5.35;;;;;;;25.61;34.81;98575.97;4455370;32;20085;-84
2023/05/04 05:40:45;;;;;;;10.75;5.60;;;;;;;25.58;35.29;98576.28;4454967;32;20093;-83
2023/05/04 05:43:12;;;;;;;9.57;4.97;;;;;;;25.11;35.59;98579.97;4455286;32;20115;-83
2023/05/04 05:45:39;;;;;;;10.57;5.65;;;;;;;24.69;36.84;98575.87;4455179;32;20100;-83
2023/05/04 05:48:05;;;;;;;12.15;5.25;;;;;;;23.52;38.13;98576.72;4454779;32;20089;-83
2023/05/04 05:50:33;;;;;;;9.27;4.80;;;;;;;24.44;37.42;98576.44;4455294;32;20077;-83
2023/05/04 05:53:00;;;;;;;10.32;4.97;;;;;;;24.80;36.81;98572.25;4455145;32;20154;-83
2023/05/04 05:55:27;;;;;;;10.82;4.90;;;;;;;24.29;37.45;98577.81;4454774;32;20516;-83
2023/05/04 05:57:54;;;;;;;10.55;5.28;;;;;;;25.00;36.76;98580.94;4454965;32;20097;-83
2023/05/04 06:00:20;;;;;;;10.85;4.87;;;;;;;24.09;37.23;98579.62;4454643;32;20077;-83
2023/05/04 06:02:47;;;;;;;11.20;4.95;;;;;;;22.32;40.72;98579.88;4454930;32;20096;-81
2023/05/04 06:05:15;;;;;;;9.98;5.10;;;;;;;23.31;39.23;98575.94;4454946;32;20148;-81
2023/05/04 06:07:42;;;;;;;11.50;5.40;;;;;;;22.71;40.76;98575.75;4454534;32;20160;-81
2023/05/04 06:10:09;;;;;;;11.57;4.85;;;;;;;21.44;43.75;98585.22;4440773;32;20073;-83
2023/05/04 06:12:36;;;;;;;11.27;4.93;;;;;;;21.06;44.22;98578.53;4455228;32;20503;-85
2023/05/04 06:15:03;;;;;;;10.90;5.10;;;;;;;22.01;42.87;98578.94;4455532;32;20166;-87
2023/05/04 06:17:30;;;;;;;10.10;4.75;;;;;;;20.49;47.13;98581.16;4443234;32;20085;-86
2023/05/04 06:19:58;;;;;;;11.32;4.70;;;;;;;20.77;46.19;98586.00;4459087;32;20142;-86
2023/05/04 06:22:25;;;;;;;9.60;4.97;;;;;;;20.25;47.34;98580.31;4465478;32;20065;-85
2023/05/04 06:24:52;;;;;;;11.05;5.53;;;;;;;18.50;52.04;98586.41;4464426;32;20057;-86
2023/05/04 06:27:27;;;;;;;10.55;5.18;;;;;;;19.45;50.30;98582.56;4455120;32;20081;-84
2023/05/04 06:29:54;;;;;;;11.68;5.20;;;;;;;19.19;49.65;98587.84;4454078;32;20085;-83
2023/05/04 06:32:21;;;;;;;10.75;4.78;;;;;;;19.61;49.75;98586.66;4454677;32;20150;-83
2023/05/04 06:34:53;;;;;;;10.52;5.10;;;;;;;18.71;51.73;98587.62;4454536;32;20101;-83
2023/05/04 06:37:20;;;;;;;10.52;5.22;;;;;;;19.13;51.09;98588.25;4454473;32;20080;-83
2023/05/04 06:39:47;;;;;;;11.48;4.87;;;;;;;19.80;49.90;98588.81;4442734;32;20099;-83
2023/05/04 06:42:14;;;;;;;10.95;4.82;;;;;;;19.85;49.43;98591.09;4456768;32;20101;-82
2023/05/04 06:44:41;;;;;;;11.00;5.15;;;;;;;19.97;50.04;98589.34;4456718;32;20084;-82
2023/05/04 06:47:08;;;;;;;10.75;5.00;;;;;;;20.10;49.20;98590.16;4456766;32;20107;-83
2023/05/04 06:49:35;;;;;;;11.35;5.00;;;;;;;19.49;51.87;98595.34;4456231;32;20073;-82
2023/05/04 06:52:02;;;;;;;11.10;4.97;;;;;;;19.17;52.48;98592.38;4456615;32;20097;-82
2023/05/04 06:54:30;;;;;;;10.50;4.68;;;;;;;18.84;54.65;98586.81;4456799;32;20111;-83
2023/05/04 06:56:57;;;;;;;10.45;4.50;;;;;;;19.90;50.37;98604.69;4456378;32;20090;-82
2023/05/04 06:59:24;;;;;;;10.13;4.45;;;;;;;19.65;51.08;98590.72;4456423;32;20395;-82
2023/05/04 07:01:51;;;;;;;10.75;4.57;;;;;;;20.18;49.81;98598.28;4456675;32;20093;-82
2023/05/04 07:04:21;;;;;;;10.55;4.60;;;;;;;19.55;50.98;98597.53;4456192;32;20104;-82
2023/05/04 07:06:49;;;;;;;10.07;4.55;;;;;;;19.44;53.21;98600.06;4456448;32;20183;-82
2023/05/04 07:09:19;;;;;;;9.73;4.35;;;;;;;19.41;53.88;98596.81;4456411;32;20073;-82
2023/05/04 07:11:47;;;;;;;11.12;4.20;;;;;;;19.81;51.15;98606.19;4455977;32;20089;-82
2023/05/04 07:14:14;;;;;;;9.65;4.60;;;;;;;19.99;51.73;98604.03;4456497;32;20384;-82
2023/05/04 07:16:41;;;;;;;10.55;4.50;;;;;;;19.84;51.50;98616.44;4456365;32;20112;-82
2023/05/04 07:19:09;;;;;;;9.13;4.20;;;;;;;19.98;51.19;98625.06;4456085;32;20104;-82
2023/05/04 07:21:36;;;;;;;10.05;5.03;;;;;;;20.18;51.19;98624.47;4456711;32;20120;-82
2023/05/04 07:24:04;;;;;;;10.48;5.25;;;;;;;20.69;49.00;98619.00;4456325;32;20126;-82
2023/05/04 07:26:31;;;;;;;10.63;5.10;;;;;;;20.60;50.58;98620.50;4456049;32;20104;-82
2023/05/04 07:28:57;;;;;;;10.07;4.57;;;;;;;20.79;49.32;98619.97;4456100;32;20073;-82
2023/05/04 07:31:24;;;;;;;13.10;5.28;;;;;;;20.80;48.98;98621.63;4456031;32;20120;-83
2023/05/04 07:33:53;;;;;;;11.07;5.40;;;;;;;20.42;49.75;98620.09;4456223;32;20111;-82
2023/05/04 07:36:20;;;;;;;11.05;4.90;;;;;;;20.55;49.44;98630.50;4456202;32;20100;-82
2023/05/04 07:38:47;;;;;;;10.75;5.12;;;;;;;20.13;51.40;98627.44;4455779;32;20081;-82
2023/05/04 07:41:14;;;;;;;14.07;5.07;;;;;;;20.60;49.04;98630.16;4456384;32;20535;-82
2023/05/04 07:43:41;;;;;;;11.80;4.78;;;;;;;21.29;47.24;98633.69;4456328;32;20462;-82
2023/05/04 07:46:08;;;;;;;12.40;4.97;;;;;;;21.05;48.47;98631.97;4456055;32;20085;-83
2023/05/04 07:48:35;;;;;;;10.50;4.60;;;;;;;20.97;49.22;98628.25;4456696;32;20148;-83
2023/05/04 07:51:02;;;;;;;10.40;4.93;;;;;;;21.58;46.39;98629.59;4456393;32;20115;-84
2023/05/04 07:53:29;;;;;;;11.48;5.03;;;;;;;21.55;46.95;98623.75;4441968;32;20112;-84
2023/05/04 07:55:56;;;;;;;9.85;4.60;;;;;;;21.49;46.70;98621.63;4455989;32;20153;-83
2023/05/04 07:58:23;;;;;;;14.40;5.45;;;;;;;21.46;47.19;98620.06;4456457;32;20104;-85
2023/05/04 08:00:50;;;;;;;10.45;5.07;;;;;;;21.69;47.37;98625.28;4455761;32;20275;-84
2023/05/04 08:03:17;;;;;;;12.20;4.93;;;;;;;22.02;46.25;98625.25;4456134;32;20093;-85
2023/05/04 08:05:44;;;;;;;12.02;4.20;;;;;;;21.82;47.31;98636.53;4455994;32;20117;-84
2023/05/04 08:08:11;;;;;;;10.18;4.80;;;;;;;20.71;49.58;98619.69;4455484;32;20085;-83
2023/05/04 08:10:38;;;;;;;9.93;4.40;;;;;;;20.53;49.90;98629.78;4456008;32;20093;-83
2023/05/04 08:13:05;;;;;;;10.05;4.70;;;;;;;20.81;50.46;98623.31;4455883;32;20101;-84
2023/05/04 08:15:32;;;;;;;14.32;5.15;;;;;;;21.67;48.49;98633.31;4455557;32;20135;-84
2023/05/04 08:17:59;;;;;;;10.45;4.80;;;;;;;22.53;44.45;98624.59;4455876;32;20112;-83
2023/05/04 08:20:26;;;;;;;9.57;4.40;;;;;;;21.55;46.66;98632.47;4455956;32;20093;-82
2023/05/04 08:22:53;;;;;;;9.32;4.55;;;;;;;21.98;46.50;98636.13;4456781;32;20454;-83
2023/05/04 08:25:21;;;;;;;10.75;4.72;;;;;;;22.79;44.21;98630.34;4459062;32;20401;-82
2023/05/04 08:27:48;;;;;;;10.18;4.35;;;;;;;22.96;42.99;98631.59;4460098;32;20089;-82
2023/05/04 08:30:15;;;;;;;8.98;4.40;;;;;;;22.73;45.75;98634.31;4461064;32;20159;-81
2023/05/04 08:32:42;;;;;;;10.48;4.53;;;;;;;21.69;45.61;98639.25;4457005;32;20147;-81
2023/05/04 08:35:09;;;;;;;10.23;4.87;;;;;;;22.69;44.86;98638.16;4456772;32;20093;-82
2023/05/04 08:37:36;;;;;;;9.60;4.70;;;;;;;22.17;47.75;98629.28;4456854;32;20054;-82
2023/05/04 08:40:04;;;;;;;9.40;4.37;;;;;;;22.67;43.85;98632.22;4456136;32;20104;-83
2023/05/04 08:42:32;;;;;;;12.43;4.80;;;;;;;21.71;48.11;98633.91;4455764;32;20450;-83
2023/05/04 08:44:59;;;;;;;9.57;4.57;;;;;;;22.55;44.19;98637.66;4441974;32;20084;-83
2023/05/04 08:47:27;;;;;;;9.77;4.90;;;;;;;23.60;43.94;98636.63;4456238;32;20402;-83
2023/05/04 08:49:55;;;;;;;9.52;4.40;;;;;;;23.05;45.06;98641.34;4455293;32;20113;-83
2023/05/04 08:52:24;;;;;;;9.90;4.12;;;;;;;22.80;44.16;98642.53;4456234;32;20146;-83
2023/05/04 08:54:54;;;;;;;10.23;4.35;;;;;;;23.63;41.81;98642.50;4441800;32;20097;-83
2023/05/04 08:57:24;;;;;;;9.07;4.45;;;;;;;22.20;45.31;98636.94;4455490;32;20154;-78
2023/05/04 08:59:53;;;;;;;9.32;4.80;;;;;;;22.52;46.13;98639.56;4441681;32;20165;-79
2023/05/04 09:02:21;;;;;;;8.45;4.32;;;;;;;22.79;45.09;98646.97;4454413;32;20625;-79
2023/05/04 09:04:52;;;;;;;10.90;4.30;;;;;;;23.66;42.18;98636.13;4441447;32;20089;-80
2023/05/04 09:07:20;;;;;;;9.90;4.00;;;;;;;24.48;41.77;98642.00;4441606;32;20419;-79
2023/05/04 09:09:50;;;;;;;9.73;4.60;;;;;;;23.55;44.28;98634.38;4455170;32;20124;-79
2023/05/04 09:12:18;;;;;;;11.10;4.12;;;;;;;22.64;44.98;98640.34;4455264;32;20101;-80
2023/05/04 09:14:45;;;;;;;8.85;3.97;;;;;;;22.19;46.16;98631.78;4455417;32;20089;-79
2023/05/04 09:17:24;;;;;;;8.73;3.85;;;;;;;22.78;44.92;98640.03;4455204;32;20107;-81
2023/05/04 09:20:01;;;;;;;8.55;4.03;;;;;;;22.25;47.17;98633.94;4455304;32;20092;-80
2023/05/04 09:22:29;;;;;;;9.55;4.10;;;;;;;23.44;42.77;98636.28;4455522;32;20115;-79
2023/05/04 09:25:10;;;;;;;8.90;4.18;;;;;;;24.00;41.48;98643.69;4455109;32;20119;-79
2023/05/04 09:27:40;;;;;;;8.32;3.90;;;;;;;24.94;41.83;98634.31;4455361;32;20092;-78
2023/05/04 09:30:07;;;;;;;8.95;4.28;;;;;;;23.70;42.46;98629.59;4455180;32;20139;-80
2023/05/04 09:32:45;;;;;;;7.97;3.80;;;;;;;25.47;39.72;98631.94;4455225;32;20100;-79
2023/05/04 09:35:13;;;;;;;8.05;3.58;;;;;;;26.12;38.36;98629.25;4441524;32;20089;-84
2023/05/04 09:37:58;;;;;;;10.20;3.45;;;;;;;25.65;39.44;98627.56;4454903;32;20626;-84
2023/05/04 09:40:40;;;;;;;7.40;3.20;;;;;;;26.02;39.16;98629.31;4446172;32;20105;-84
2023/05/04 09:43:09;;;;;;;8.80;3.62;;;;;;;26.41;37.40;98624.62;4441436;32;20294;-83
2023/05/04 09:45:40;;;;;;;10.63;3.53;;;;;;;27.28;35.96;98623.78;4457658;32;20095;-83
2023/05/04 09:48:20;;;;;;;8.18;3.72;;;;;;;27.12;35.18;98618.41;4457628;32;20373;-83
2023/05/04 09:50:50;;;;;;;8.07;3.55;;;;;;;26.94;35.33;98626.38;4455226;32;20115;-83
2023/05/04 09:53:20;;;;;;;6.20;3.00;;;;;;;26.58;35.48;98619.47;4440840;32;20116;-84
2023/05/04 09:55:58;;;;;;;9.52;3.37;;;;;;;27.00;35.11;98615.13;4455145;32;20089;-84
2023/05/04 09:58:30;;;;;;;6.35;3.15;;;;;;;27.48;34.50;98618.25;4454948;32;20069;-84
2023/05/04 10:01:00;;;;;;;6.62;3.22;;;;;;;26.83;35.56;98610.75;4454798;32;20218;-83
2023/05/04 10:03:27;;;;;;;7.12;3.00;;;;;;;26.94;37.03;98609.66;4454944;32;20141;-84
2023/05/04 10:05:56;;;;;;;8.05;3.10;;;;;;;27.71;34.32;98611.44;4454435;32;20101;-83
2023/05/04 10:08:23;;;;;;;6.70;3.42;;;;;;;27.68;35.05;98611.75;4440925;32;20383;-84
2023/05/04 10:10:51;;;;;;;6.85;3.28;;;;;;;26.98;36.60;98613.63;4454693;32;20116;-84
2023/05/04 10:13:18;;;;;;;6.37;2.92;;;;;;;26.61;36.71;98612.06;4455463;32;20097;-83
2023/05/04 10:16:24;;;;;;;8.20;3.55;;;;;;;27.90;35.12;98605.03;4456888;32;20086;-83
2023/05/04 10:18:58;;;;;;;6.12;3.10;;;;;;;27.38;35.01;98605.13;4456797;32;20100;-83
2023/05/04 10:21:31;;;;;;;6.97;3.22;;;;;;;27.52;34.69;98601.03;4456660;32;20101;-83
2023/05/04 10:24:14;;;;;;;6.78;2.90;;;;;;;27.28;35.30;98599.94;4442922;32;20109;-83
2023/05/04 10:27:04;;;;;;;8.70;3.33;;;;;;;26.75;34.88;98592.97;4442942;32;20089;-83
2023/05/04 10:29:32;;;;;;;8.88;3.28;;;;;;;26.56;35.67;98587.84;4430009;32;20077;-83
2023/05/04 10:31:59;;;;;;;8.55;3.30;;;;;;;26.49;35.92;98586.84;4456789;32;20115;-83
2023/05/04 10:34:28;;;;;;;9.20;3.15;;;;;;;26.05;36.52;98575.31;4456533;32;20105;-83
2023/05/04 10:36:56;;;;;;;7.97;3.62;;;;;;;25.61;38.72;98588.34;4456681;32;20600;-83
2023/05/04 10:39:25;;;;;;;8.48;3.55;;;;;;;24.44;42.24;98585.19;4456617;32;20153;-83
2023/05/04 10:41:55;;;;;;;10.10;3.72;;;;;;;23.45;42.77;98588.75;4456351;32;20089;-83
2023/05/04 10:44:22;;;;;;;6.68;3.50;;;;;;;23.60;43.05;98592.69;4456697;32;20466;-83
2023/05/04 10:46:59;;;;;;;8.63;3.30;;;;;;;24.13;40.81;98583.63;4456437;32;20089;-83
2023/05/04 10:49:26;;;;;;;7.50;3.15;;;;;;;23.71;41.87;98583.84;4456249;32;20099;-83
2023/05/04 10:52:10;;;;;;;6.85;3.30;;;;;;;24.57;39.96;98586.72;4442744;32;20170;-83
2023/05/04 10:54:39;;;;;;;6.15;3.15;;;;;;;25.16;39.22;98589.09;4456664;32;20089;-83
2023/05/04 10:57:09;;;;;;;6.10;3.22;;;;;;;26.02;37.59;98578.25;4456174;32;20201;-83
2023/05/04 10:59:36;;;;;;;10.15;3.35;;;;;;;25.86;37.98;98578.94;4456465;32;20089;-83
2023/05/04 11:02:04;;;;;;;6.05;3.00;;;;;;;25.38;38.39;98580.81;4442481;32;20128;-83
2023/05/04 11:04:32;;;;;;;7.03;3.10;;;;;;;26.34;36.01;98581.19;4456677;32;20112;-83
2023/05/04 11:07:04;;;;;;;6.22;3.03;;;;;;;26.60;35.90;98578.66;4456443;32;20093;-83
2023/05/04 11:09:39;;;;;;;6.68;2.92;;;;;;;27.14;34.62;98567.94;4455980;32;20085;-83
2023/05/04 11:12:09;;;;;;;8.20;3.15;;;;;;;25.91;35.43;98556.34;4456082;32;20158;-84
2023/05/04 11:14:41;;;;;;;5.97;2.80;;;;;;;26.01;35.88;98571.31;4456638;32;20111;-83
2023/05/04 11:17:10;;;;;;;6.40;2.70;;;;;;;26.71;35.33;98559.87;4443019;32;20115;-83
2023/05/04 11:19:54;;;;;;;5.03;2.60;;;;;;;27.44;32.95;98570.06;4456514;32;20158;-83
2023/05/04 11:22:21;;;;;;;5.75;3.12;;;;;;;27.28;34.28;98560.22;4456522;32;20519;-84
2023/05/04 11:24:48;;;;;;;5.40;2.67;;;;;;;27.15;33.98;98557.19;4455359;32;20105;-83
2023/05/04 11:27:26;;;;;;;5.40;2.70;;;;;;;26.25;36.27;98558.31;4456279;32;20089;-84
2023/05/04 11:29:56;;;;;;;5.95;2.90;;;;;;;26.02;36.43;98550.00;4456000;32;20081;-84
2023/05/04 11:32:37;;;;;;;6.57;2.83;;;;;;;25.13;38.77;98551.63;4442526;32;20105;-83